Time;durP1;ratioP1;P1;durP2;ratioP2;P2;SDS_P1;SDS_P2;PMS_P1;PMS_P2;Temp;Humidity;BMP_temperature;BMP_pressure;BME280_temperature;BME280_humidity;BME280_pressure;Samples;Min_cycle;Max_cycle;Signal;HPM_P1;HPM_P2
2023/09/19 00:00:37;;;;;;;16.50;13.88;;;20.50;99.90;;;;;;5062692;28;20045;-65
2023/09/19 00:03:04;;;;;;;19.77;14.48;;;20.50;99.90;;;;;;5066267;28;20052;-66
2023/09/19 00:05:34;;;;;;;21.13;13.70;;;20.50;99.90;;;;;;5067972;28;20056;-66
2023/09/19 00:08:01;;;;;;;23.42;15.48;;;20.50;1.00;;;;;;5069472;28;20074;-66
2023/09/19 00:10:30;;;;;;;17.45;14.68;;;20.60;1.00;;;;;;5067790;28;20099;-65
2023/09/19 00:12:58;;;;;;;19.35;12.48;;;20.50;1.00;;;;;;5067622;28;20036;-65
2023/09/19 00:15:25;;;;;;;17.33;13.07;;;20.40;99.90;;;;;;5062599;28;20120;-65
2023/09/19 00:17:52;;;;;;;16.25;12.18;;;20.40;99.90;;;;;;5049389;28;20116;-66
2023/09/19 00:20:18;;;;;;;16.85;11.63;;;20.40;91.20;;;;;;5049503;28;20482;-65
2023/09/19 00:22:44;;;;;;;15.43;11.68;;;20.40;1.00;;;;;;5058693;28;20556;-66
2023/09/19 00:25:11;;;;;;;19.73;11.82;;;20.40;1.00;;;;;;5067553;28;20040;-66
2023/09/19 00:27:41;;;;;;;14.77;10.43;;;20.40;1.00;;;;;;5068824;28;20044;-65
2023/09/19 00:30:15;;;;;;;15.07;11.85;;;20.30;99.90;;;;;;5061733;28;20049;-65
2023/09/19 00:32:42;;;;;;;17.52;12.48;;;20.40;99.90;;;;;;5057505;28;20036;-65
2023/09/19 00:35:11;;;;;;;18.30;11.48;;;20.30;99.90;;;;;;5069013;28;20139;-65
2023/09/19 00:37:37;;;;;;;16.42;12.32;;;20.30;99.90;;;;;;5068737;28;20071;-65
2023/09/19 00:40:11;;;;;;;20.35;12.90;;;20.30;99.90;;;;;;5068583;28;20463;-65
2023/09/19 00:42:40;;;;;;;23.08;14.02;;;20.30;99.90;;;;;;5060405;28;20116;-66
2023/09/19 00:45:11;;;;;;;20.02;14.25;;;20.30;99.90;;;;;;5048753;28;20041;-65
2023/09/19 00:47:46;;;;;;;20.95;13.23;;;20.40;99.90;;;;;;5048699;28;20055;-65
2023/09/19 00:50:14;;;;;;;18.63;14.18;;;20.40;99.90;;;;;;5047467;28;20057;-65
2023/09/19 00:52:42;;;;;;;19.55;11.90;;;20.40;99.90;;;;;;5056109;28;20044;-65
2023/09/19 00:55:09;;;;;;;17.75;11.13;;;20.40;99.90;;;;;;5068195;28;20041;-65
2023/09/19 00:57:38;;;;;;;17.85;11.40;;;20.30;99.90;;;;;;5066942;28;20037;-67
2023/09/19 01:00:08;;;;;;;21.42;13.82;;;20.40;99.90;;;;;;5068308;28;20492;-65
2023/09/19 01:02:34;;;;;;;18.08;12.82;;;20.30;99.90;;;;;;5060958;28;20049;-65
2023/09/19 01:05:00;;;;;;;16.27;11.75;;;20.30;99.90;;;;;;5048528;28;20505;-65
2023/09/19 01:07:31;;;;;;;17.35;12.63;;;20.40;99.90;;;;;;5046698;28;20049;-64
2023/09/19 01:10:00;;;;;;;16.70;12.90;;;20.40;99.90;;;;;;5063729;28;20047;-65
2023/09/19 01:13:10;;;;;;;17.45;13.02;;;20.40;99.90;;;;;;5067506;28;20433;-65
2023/09/19 01:15:36;;;;;;;16.73;10.90;;;20.40;99.90;;;;;;5048026;28;20033;-65
2023/09/19 01:18:19;;;;;;;14.63;10.82;;;20.40;99.90;;;;;;5047160;28;20062;-65
2023/09/19 01:21:14;;;;;;;17.98;11.70;;;20.40;99.90;;;;;;5048245;28;20067;-65
2023/09/19 01:24:13;;;;;;;18.65;11.90;;;20.40;99.90;;;;;;5063623;28;20414;-65
2023/09/19 01:27:06;;;;;;;17.13;11.45;;;20.40;99.90;;;;;;5067864;28;20425;-64
2023/09/19 01:29:43;;;;;;;16.83;10.10;;;20.40;99.90;;;;;;5068044;28;20048;-64
2023/09/19 01:32:10;;;;;;;15.02;9.75;;;20.40;1.00;;;;;;5064710;28;20152;-61
2023/09/19 01:34:47;;;;;;;15.15;10.65;;;20.40;1.00;;;;;;5047670;28;20087;-61
2023/09/19 01:37:13;;;;;;;14.57;9.30;;;20.40;1.00;;;;;;5048592;28;20045;-61
2023/09/19 01:39:39;;;;;;;18.90;9.65;;;20.40;1.00;;;;;;5047730;28;20585;-62
2023/09/19 01:42:19;;;;;;;15.75;10.52;;;20.40;1.00;;;;;;5049304;28;20083;-62
2023/09/19 01:45:08;;;;;;;15.45;10.63;;;20.50;1.00;;;;;;5067947;28;20052;-62
2023/09/19 01:47:48;;;;;;;14.93;11.07;;;20.40;1.00;;;;;;5067321;28;20051;-62
2023/09/19 01:50:32;;;;;;;15.20;10.30;;;20.40;1.00;;;;;;5067425;28;20048;-62
2023/09/19 01:53:19;;;;;;;13.13;8.00;;;20.30;1.00;;;;;;5058024;28;20060;-62
2023/09/19 01:55:49;;;;;;;12.43;9.00;;;20.40;99.90;;;;;;5047241;28;20045;-62
2023/09/19 01:58:37;;;;;;;13.90;10.07;;;20.30;99.90;;;;;;5047526;28;20041;-62
2023/09/19 02:01:05;;;;;;;16.25;9.57;;;20.30;99.90;;;;;;5047065;28;20624;-62
2023/09/19 02:03:33;;;;;;;17.15;11.43;;;20.20;99.90;;;;;;5060627;28;20045;-61
2023/09/19 02:05:59;;;;;;;14.88;12.07;;;20.40;99.90;;;;;;5067249;28;20123;-62
2023/09/19 02:08:25;;;;;;;17.35;11.18;;;20.40;1.00;;;;;;5067191;28;20128;-63
2023/09/19 02:10:52;;;;;;;20.33;12.68;;;20.30;1.00;;;;;;5067368;28;20040;-61
2023/09/19 02:13:19;;;;;;;22.27;13.23;;;20.80;1.00;;;;;;5055414;28;20561;-62
2023/09/19 02:15:46;;;;;;;19.60;13.57;;;20.30;1.00;;;;;;5047311;28;20037;-61
2023/09/19 02:18:15;;;;;;;20.13;13.57;;;20.40;1.00;;;;;;5045988;28;20076;-61
2023/09/19 02:20:40;;;;;;;19.45;11.75;;;20.40;91.90;;;;;;5047516;28;20049;-61
2023/09/19 02:23:07;;;;;;;15.77;8.07;;;20.40;70.10;;;;;;5052913;28;20500;-63
2023/09/19 02:25:33;;;;;;;14.20;8.73;;;20.30;1.00;;;;;;5065880;28;20135;-62
2023/09/19 02:28:01;;;;;;;12.95;10.63;;;20.40;99.90;;;;;;5067445;28;20127;-62
2023/09/19 02:30:26;;;;;;;16.13;12.32;;;20.30;99.90;;;;;;5067020;28;20055;-62
2023/09/19 02:32:52;;;;;;;14.23;10.75;;;20.50;99.90;;;;;;5064186;28;20033;-62
2023/09/19 02:35:21;;;;;;;18.95;12.00;;;20.20;99.90;;;;;;5046953;28;20037;-62
2023/09/19 02:37:47;;;;;;;17.35;12.35;;;20.20;99.90;;;;;;5046881;28;20045;-61
2023/09/19 02:40:18;;;;;;;19.02;13.27;;;20.20;99.90;;;;;;5047142;28;20048;-60
2023/09/19 02:42:49;;;;;;;16.67;10.15;;;20.20;1.00;;;;;;5048792;28;20049;-61
2023/09/19 02:45:17;;;;;;;16.50;10.70;;;20.20;99.90;;;;;;5066953;28;20036;-60
2023/09/19 02:47:43;;;;;;;18.25;11.40;;;20.20;99.90;;;;;;5066987;28;20040;-61
2023/09/19 02:50:12;;;;;;;17.52;11.98;;;20.20;99.90;;;;;;5066810;28;20064;-61
2023/09/19 02:52:38;;;;;;;16.60;12.10;;;20.10;99.90;;;;;;5066447;28;20040;-61
2023/09/19 02:55:06;;;;;;;15.15;11.45;;;20.10;99.90;;;;;;5047256;28;20123;-61
2023/09/19 02:57:33;;;;;;;19.95;13.57;;;20.10;99.90;;;;;;5047432;28;20041;-62
2023/09/19 02:59:59;;;;;;;15.45;13.43;;;20.10;1.00;;;;;;5046997;28;20076;-61
2023/09/19 03:02:24;;;;;;;20.60;13.50;;;20.10;1.00;;;;;;5046842;28;20041;-61
2023/09/19 03:04:51;;;;;;;17.80;12.75;;;20.00;1.00;;;;;;5064809;28;20448;-61
2023/09/19 03:07:17;;;;;;;23.58;13.13;;;20.00;1.00;;;;;;5066826;28;20498;-61
2023/09/19 03:09:43;;;;;;;16.67;12.95;;;20.00;1.00;;;;;;5066844;28;20045;-60
2023/09/19 03:12:08;;;;;;;20.05;14.23;;;19.90;1.00;;;;;;5066757;28;20062;-60
2023/09/19 03:14:35;;;;;;;18.05;15.38;;;19.90;1.00;;;;;;5064615;28;20048;-62
2023/09/19 03:17:04;;;;;;;17.58;13.73;;;19.90;1.00;;;;;;5070286;28;20387;-62
2023/09/19 03:19:30;;;;;;;18.00;14.02;;;20.00;30.20;;;;;;5070403;28;20116;-60
2023/09/19 03:21:57;;;;;;;21.08;15.85;;;20.00;82.80;;;;;;5070613;28;20132;-61
2023/09/19 03:24:23;;;;;;;18.15;14.60;;;20.00;99.90;;;;;;5055784;28;20072;-60
2023/09/19 03:26:48;;;;;;;20.00;14.77;;;20.00;99.90;;;;;;5050250;28;20083;-60
2023/09/19 03:29:15;;;;;;;18.08;13.30;;;19.90;99.90;;;;;;5050373;28;20041;-61
2023/09/19 03:31:41;;;;;;;19.88;15.63;;;20.00;99.90;;;;;;5050123;28;20045;-59
2023/09/19 03:34:06;;;;;;;20.00;15.13;;;20.00;99.90;;;;;;5061987;28;20181;-61
2023/09/19 03:36:32;;;;;;;21.13;14.98;;;20.30;99.90;;;;;;5070008;28;20108;-62
2023/09/19 03:38:57;;;;;;;21.55;15.05;;;19.90;99.90;;;;;;5070134;28;20036;-60
2023/09/19 03:41:23;;;;;;;21.50;15.38;;;20.00;99.90;;;;;;5068365;28;20113;-61
2023/09/19 03:43:49;;;;;;;19.45;14.80;;;20.10;99.90;;;;;;5060129;28;20041;-61
2023/09/19 03:46:15;;;;;;;19.08;15.38;;;20.10;99.90;;;;;;5049621;28;20053;-60
2023/09/19 03:48:40;;;;;;;20.65;16.25;;;20.10;99.90;;;;;;5049440;28;20423;-61
2023/09/19 03:51:06;;;;;;;23.08;13.68;;;20.00;99.90;;;;;;5049680;28;20045;-61
2023/09/19 03:53:32;;;;;;;17.77;15.02;;;20.00;99.90;;;;;;5056421;28;20036;-62
2023/09/19 03:55:57;;;;;;;17.90;15.73;;;20.10;99.90;;;;;;5069323;28;20414;-61
2023/09/19 03:58:23;;;;;;;19.38;16.45;;;20.00;99.90;;;;;;5069473;28;20514;-62
2023/09/19 04:00:50;;;;;;;14.55;11.88;;;20.00;99.90;;;;;;5069225;28;20051;-62
2023/09/19 04:03:20;;;;;;;17.77;13.55;;;20.00;99.90;;;;;;5065050;28;20045;-61
2023/09/19 04:05:47;;;;;;;22.02;13.75;;;20.10;99.90;;;;;;5049689;28;20115;-61
2023/09/19 04:08:13;;;;;;;18.02;12.18;;;20.10;99.90;;;;;;5048124;28;20091;-61
2023/09/19 04:10:41;;;;;;;16.52;12.57;;;20.10;57.80;;;;;;5049215;28;20091;-62
2023/09/19 04:13:07;;;;;;;19.17;14.90;;;20.10;1.00;;;;;;5051741;28;20052;-61
2023/09/19 04:15:33;;;;;;;21.45;14.63;;;20.20;10.50;;;;;;5068986;28;20051;-61
2023/09/19 04:17:58;;;;;;;19.40;12.10;;;20.00;81.30;;;;;;5069156;28;20044;-62
2023/09/19 04:20:24;;;;;;;16.42;11.82;;;20.10;1.00;;;;;;5069473;28;20037;-61
2023/09/19 04:22:50;;;;;;;17.58;12.60;;;20.20;1.00;;;;;;5069129;28;20498;-61
2023/09/19 04:25:15;;;;;;;22.02;14.63;;;20.20;1.00;;;;;;5049024;28;20041;-62
2023/09/19 04:27:44;;;;;;;18.00;13.50;;;20.30;1.00;;;;;;5048956;28;20476;-61
2023/09/19 04:30:12;;;;;;;21.95;13.60;;;20.20;1.00;;;;;;5048694;28;20070;-61
2023/09/19 04:32:41;;;;;;;21.20;13.30;;;20.20;1.00;;;;;;5047651;28;20099;-61
2023/09/19 04:35:10;;;;;;;21.15;13.80;;;20.30;1.00;;;;;;5048423;28;20118;-62
2023/09/19 04:37:39;;;;;;;18.55;14.35;;;20.20;1.00;;;;;;5049030;28;20422;-63
2023/09/19 04:40:12;;;;;;;24.88;16.52;;;20.20;1.00;;;;;;5049012;28;20414;-61
2023/09/19 04:42:39;;;;;;;17.98;15.10;;;20.30;1.00;;;;;;5048496;28;20040;-61
2023/09/19 04:45:05;;;;;;;22.13;15.05;;;20.20;1.00;;;;;;5061911;28;20041;-62
2023/09/19 04:47:31;;;;;;;21.83;15.50;;;20.20;1.00;;;;;;5067174;28;20090;-61
2023/09/19 04:49:58;;;;;;;21.52;15.88;;;20.20;1.00;;;;;;5068268;28;20092;-61
2023/09/19 04:52:24;;;;;;;22.90;16.75;;;20.20;1.00;;;;;;5068277;28;20052;-62
2023/09/19 04:54:50;;;;;;;23.75;15.93;;;20.20;17.90;;;;;;5056542;28;20037;-61
2023/09/19 04:57:15;;;;;;;20.00;15.48;;;20.20;1.00;;;;;;5048324;28;20531;-62
2023/09/19 04:59:41;;;;;;;21.08;16.30;;;20.20;1.00;;;;;;5048203;28;20033;-62
2023/09/19 05:02:08;;;;;;;21.70;15.57;;;20.20;1.00;;;;;;5048394;28;20071;-61
2023/09/19 05:04:34;;;;;;;20.40;15.60;;;20.10;1.00;;;;;;5049552;28;20053;-61
2023/09/19 05:07:01;;;;;;;20.13;15.95;;;20.20;1.00;;;;;;5048303;28;20055;-61
2023/09/19 05:09:26;;;;;;;29.05;18.65;;;20.20;1.00;;;;;;5030793;28;20048;-62
2023/09/19 05:11:52;;;;;;;22.35;19.30;;;20.20;25.40;;;;;;5046772;28;20494;-61
2023/09/19 05:14:20;;;;;;;22.90;20.38;;;20.10;94.30;;;;;;5051470;28;20098;-61
2023/09/19 05:16:46;;;;;;;29.50;20.13;;;20.10;99.90;;;;;;5048123;28;20040;-60
2023/09/19 05:19:11;;;;;;;23.77;17.13;;;20.10;99.90;;;;;;5048453;28;20182;-61
2023/09/19 05:21:38;;;;;;;24.17;18.52;;;20.20;99.90;;;;;;5048422;28;20043;-62
2023/09/19 05:24:06;;;;;;;25.13;17.52;;;20.10;99.90;;;;;;5052614;28;20040;-60
2023/09/19 05:26:32;;;;;;;23.33;19.17;;;20.10;99.90;;;;;;5067466;28;20040;-60
2023/09/19 05:28:57;;;;;;;28.83;18.48;;;20.10;99.90;;;;;;5067382;28;20047;-61
2023/09/19 05:31:24;;;;;;;33.85;19.13;;;20.10;99.90;;;;;;5067582;28;20040;-60
2023/09/19 05:33:50;;;;;;;26.55;19.08;;;20.00;99.90;;;;;;5065353;28;20072;-60
2023/09/19 05:36:15;;;;;;;20.73;14.73;;;20.20;99.90;;;;;;5047366;28;20146;-60
2023/09/19 05:38:42;;;;;;;18.92;16.80;;;20.10;99.90;;;;;;5047905;28;20109;-62
2023/09/19 05:41:09;;;;;;;20.42;16.10;;;20.20;99.90;;;;;;5047855;28;20096;-61
2023/09/19 05:43:37;;;;;;;22.10;15.73;;;20.20;99.90;;;;;;5048046;28;20346;-62
2023/09/19 05:46:03;;;;;;;25.77;17.75;;;20.20;27.80;;;;;;5067846;28;20123;-62
2023/09/19 05:48:28;;;;;;;27.13;19.13;;;20.20;1.00;;;;;;5067895;28;20175;-61
2023/09/19 05:50:54;;;;;;;21.30;18.05;;;20.20;34.60;;;;;;5067709;28;20497;-60
2023/09/19 05:53:19;;;;;;;22.25;16.35;;;20.20;69.90;;;;;;5067829;28;20036;-62
2023/09/19 05:55:45;;;;;;;19.58;16.30;;;20.30;4.10;;;;;;5066751;28;20071;-60
2023/09/19 05:58:13;;;;;;;23.38;17.83;;;20.30;1.00;;;;;;5067610;28;20041;-61
2023/09/19 06:00:41;;;;;;;23.20;18.13;;;20.40;1.00;;;;;;5067410;28;20165;-60
2023/09/19 06:03:07;;;;;;;25.67;19.80;;;20.30;1.00;;;;;;5067787;28;20082;-60
2023/09/19 06:05:33;;;;;;;24.98;17.65;;;20.30;24.90;;;;;;5051494;28;20053;-60
2023/09/19 06:08:07;;;;;;;20.60;16.08;;;20.30;66.40;;;;;;5047972;28;20555;-61
2023/09/19 06:10:34;;;;;;;21.42;17.08;;;20.40;41.60;;;;;;5047709;28;20053;-61
2023/09/19 06:13:04;;;;;;;21.35;15.70;;;20.40;35.90;;;;;;5047734;28;20037;-62
2023/09/19 06:15:32;;;;;;;22.77;15.32;;;20.40;1.00;;;;;;5063128;28;20067;-62
2023/09/19 06:17:59;;;;;;;21.70;16.00;;;20.50;1.00;;;;;;5068027;28;20045;-61
2023/09/19 06:20:26;;;;;;;20.88;16.30;;;20.60;1.00;;;;;;5068066;28;20044;-61
2023/09/19 06:22:52;;;;;;;21.75;15.93;;;20.50;1.00;;;;;;5050337;28;20044;-62
2023/09/19 06:25:22;;;;;;;17.67;15.80;;;20.70;1.00;;;;;;5061767;28;20421;-62
2023/09/19 06:27:55;;;;;;;20.33;16.13;;;21.30;99.90;;;;;;5064957;28;20040;-62
2023/09/19 06:30:23;;;;;;;25.95;19.05;;;20.60;99.90;;;;;;5059346;28;20071;-61
2023/09/19 06:32:49;;;;;;;27.45;20.25;;;20.60;1.00;;;;;;5059913;28;20040;-62
2023/09/19 06:35:16;;;;;;;22.38;15.20;;;20.60;1.00;;;;;;5058147;28;20045;-62
2023/09/19 06:37:43;;;;;;;23.80;15.32;;;20.60;1.00;;;;;;5055036;28;20065;-62
2023/09/19 06:40:14;;;;;;;23.77;19.05;;;20.60;99.90;;;;;;5052784;28;20052;-60
2023/09/19 06:42:45;;;;;;;19.73;16.35;;;20.60;99.90;;;;;;5058217;28;20626;-63
2023/09/19 06:45:13;;;;;;;20.85;17.88;;;20.60;1.00;;;;;;5058667;28;20066;-61
2023/09/19 06:47:39;;;;;;;21.58;16.35;;;20.60;1.00;;;;;;5058912;28;20057;-61
2023/09/19 06:50:09;;;;;;;19.98;15.32;;;20.60;1.00;;;;;;5064022;28;20057;-61
2023/09/19 06:52:35;;;;;;;22.63;16.70;;;20.70;99.90;;;;;;5059753;28;20059;-63
2023/09/19 06:55:03;;;;;;;23.90;18.15;;;20.70;99.90;;;;;;5061499;28;20529;-61
2023/09/19 06:57:30;;;;;;;25.35;20.58;;;20.60;99.90;;;;;;5060485;28;20094;-63
2023/09/19 06:59:56;;;;;;;27.80;16.67;;;20.70;1.00;;;;;;5063872;28;20395;-62
2023/09/19 07:02:21;;;;;;;26.42;16.17;;;20.70;1.00;;;;;;5064922;28;20029;-62
2023/09/19 07:04:47;;;;;;;25.38;18.55;;;20.80;1.00;;;;;;5061530;28;20510;-62
2023/09/19 07:07:13;;;;;;;21.08;14.13;;;21.00;1.00;;;;;;5059176;28;20114;-63
2023/09/19 07:09:39;;;;;;;20.45;14.48;;;20.70;99.90;;;;;;5061894;28;20098;-62
2023/09/19 07:12:05;;;;;;;23.20;16.65;;;20.70;99.90;;;;;;5067696;28;20056;-62
2023/09/19 07:14:31;;;;;;;25.42;16.45;;;20.70;99.90;;;;;;5063625;28;20090;-62
2023/09/19 07:16:56;;;;;;;20.77;15.57;;;20.70;99.90;;;;;;5063742;28;20036;-63
2023/09/19 07:19:22;;;;;;;21.23;15.90;;;20.60;82.20;;;;;;5061513;28;20047;-62
2023/09/19 07:21:49;;;;;;;23.45;14.65;;;20.60;84.50;;;;;;5061166;28;20330;-62
2023/09/19 07:24:14;;;;;;;20.67;14.57;;;20.80;99.90;;;;;;5059052;28;20049;-63
2023/09/19 07:26:40;;;;;;;22.13;17.15;;;20.80;65.60;;;;;;5063146;28;20044;-63
2023/09/19 07:29:08;;;;;;;28.63;17.33;;;20.80;92.10;;;;;;5067313;28;20075;-63
2023/09/19 07:31:34;;;;;;;17.58;14.93;;;20.90;98.90;;;;;;5060129;28;20087;-63
2023/09/19 07:33:59;;;;;;;17.45;12.43;;;20.90;99.90;;;;;;5063157;28;20045;-63
2023/09/19 07:36:25;;;;;;;24.73;12.00;;;21.20;99.90;;;;;;5059538;28;20525;-63
2023/09/19 07:38:51;;;;;;;20.65;15.13;;;21.10;30.80;;;;;;5061330;28;20472;-63
2023/09/19 07:41:16;;;;;;;15.50;12.52;;;21.20;46.20;;;;;;5064658;28;20040;-62
2023/09/19 07:43:43;;;;;;;20.83;11.77;;;21.40;15.30;;;;;;5062738;28;20117;-62
2023/09/19 07:46:09;;;;;;;26.77;15.98;;;21.30;1.00;;;;;;5058999;28;20059;-63
2023/09/19 07:48:38;;;;;;;20.15;14.43;;;21.30;1.00;;;;;;5056679;28;20053;-62
2023/09/19 07:51:08;;;;;;;17.13;11.80;;;21.40;1.00;;;;;;5061363;28;20064;-62
2023/09/19 07:53:35;;;;;;;17.90;11.48;;;21.40;1.00;;;;;;5058891;28;20417;-62
2023/09/19 07:56:05;;;;;;;17.42;12.65;;;21.40;1.00;;;;;;5061501;28;20079;-62
2023/09/19 07:58:31;;;;;;;20.10;11.05;;;21.50;1.00;;;;;;5061911;28;20114;-63
2023/09/19 08:01:01;;;;;;;20.20;14.27;;;21.50;1.00;;;;;;5058950;28;20147;-62
2023/09/19 08:03:27;;;;;;;21.70;15.40;;;21.60;1.00;;;;;;5058530;28;20063;-62
2023/09/19 08:05:52;;;;;;;21.77;17.30;;;21.70;1.00;;;;;;5065146;28;20359;-62
2023/09/19 08:08:18;;;;;;;24.05;17.50;;;21.70;1.00;;;;;;5062581;28;20066;-62
2023/09/19 08:10:48;;;;;;;26.30;18.63;;;21.60;1.00;;;;;;5063093;28;20048;-62
2023/09/19 08:13:17;;;;;;;26.77;16.63;;;22.10;1.00;;;;;;5056377;28;20048;-62
2023/09/19 08:15:45;;;;;;;18.67;13.50;;;21.50;1.00;;;;;;5059672;28;20056;-62
2023/09/19 08:18:12;;;;;;;19.50;13.65;;;21.50;1.00;;;;;;5057048;28;20503;-62
2023/09/19 08:20:37;;;;;;;15.82;12.25;;;21.50;1.00;;;;;;5057675;28;20044;-62
2023/09/19 08:23:03;;;;;;;17.00;12.85;;;21.60;1.00;;;;;;5057378;28;20795;-63
2023/09/19 08:25:29;;;;;;;20.65;12.80;;;21.80;1.00;;;;;;5059376;28;20395;-63
2023/09/19 08:27:58;;;;;;;18.02;11.32;;;21.80;1.00;;;;;;5065396;28;20123;-62
2023/09/19 08:30:24;;;;;;;15.40;11.27;;;21.80;1.00;;;;;;5058122;28;20044;-60
2023/09/19 08:33:04;;;;;;;22.20;15.00;;;21.80;99.90;;;;;;5061228;28;20444;-62
2023/09/19 08:35:30;;;;;;;19.20;11.48;;;21.80;99.90;;;;;;5059798;28;21130;-62
2023/09/19 08:37:56;;;;;;;22.35;11.82;;;21.90;99.90;;;;;;5056270;28;20093;-61
2023/09/19 08:40:22;;;;;;;18.70;12.45;;;22.10;99.90;;;;;;5059275;28;20040;-61
2023/09/19 08:42:53;;;;;;;16.05;12.32;;;22.00;1.00;;;;;;5062535;28;20049;-62
2023/09/19 08:45:24;;;;;;;23.38;15.02;;;21.90;1.00;;;;;;5064123;28;20048;-61
2023/09/19 08:47:55;;;;;;;22.92;11.85;;;22.00;1.00;;;;;;5060121;28;20115;-61
2023/09/19 08:50:29;;;;;;;23.88;16.80;;;22.00;1.00;;;;;;5063456;28;20075;-63
2023/09/19 08:53:00;;;;;;;28.30;14.43;;;22.20;1.00;;;;;;5066654;28;20205;-61
2023/09/19 08:55:30;;;;;;;25.50;17.05;;;22.60;1.00;;;;;;5061648;28;20151;-61
2023/09/19 08:58:06;;;;;;;18.98;11.15;;;22.80;1.00;;;;;;5061237;28;20033;-62
2023/09/19 09:00:34;;;;;;;21.30;11.70;;;23.00;1.00;;;;;;5046795;28;20044;-61
2023/09/19 09:03:02;;;;;;;27.27;19.05;;;22.80;99.90;;;;;;5063049;28;20089;-61
2023/09/19 09:05:29;;;;;;;22.80;11.45;;;22.90;1.00;;;;;;5058531;28;20053;-62
2023/09/19 09:07:56;;;;;;;20.42;10.80;;;22.90;1.00;;;;;;5057511;28;20052;-62
2023/09/19 09:10:23;;;;;;;25.98;14.55;;;23.20;1.00;;;;;;5062036;28;20044;-62
2023/09/19 09:12:51;;;;;;;22.08;12.32;;;23.30;1.00;;;;;;5065676;28;20055;-61
2023/09/19 09:15:19;;;;;;;14.00;8.13;;;23.20;99.90;;;;;;5065388;28;20506;-61
2023/09/19 09:17:48;;;;;;;22.83;9.45;;;23.10;99.90;;;;;;5061899;28;20131;-62
2023/09/19 09:20:14;;;;;;;23.13;11.25;;;23.10;99.90;;;;;;5064557;28;20376;-61
2023/09/19 09:22:53;;;;;;;18.98;12.70;;;23.10;99.90;;;;;;5063478;28;20040;-64
2023/09/19 09:25:23;;;;;;;20.45;8.35;;;23.20;99.90;;;;;;5063088;28;20066;-62
2023/09/19 09:28:02;;;;;;;18.40;11.43;;;23.20;99.90;;;;;;5064933;28;20494;-61
2023/09/19 09:30:36;;;;;;;15.93;11.68;;;23.20;1.00;;;;;;5058987;28;20048;-61
2023/09/19 09:33:12;;;;;;;17.08;8.30;;;23.10;1.00;;;;;;5061146;28;20495;-62
2023/09/19 09:35:51;;;;;;;18.92;8.15;;;23.00;1.00;;;;;;5062817;28;20413;-62
2023/09/19 09:38:20;;;;;;;17.50;10.20;;;23.00;1.00;;;;;;5060674;28;20098;-61
2023/09/19 09:41:07;;;;;;;17.52;13.63;;;22.90;1.00;;;;;;5064206;28;20139;-62
2023/09/19 09:43:36;;;;;;;;;;;22.90;1.00;;;;;;5065291;28;20053;-63
2023/09/19 09:51:59;;;;;;;30.92;18.92;;;22.60;1.00;;;;;;5056141;28;20123;-62
2023/09/19 09:54:38;;;;;;;21.95;12.88;;;22.60;1.00;;;;;;5060831;28;20040;-61
2023/09/19 09:57:14;;;;;;;20.17;14.32;;;22.60;1.00;;;;;;5058890;28;20107;-62
2023/09/19 09:59:50;;;;;;;21.67;16.20;;;22.50;1.00;;;;;;5051126;28;20076;-62
2023/09/19 10:02:25;;;;;;;22.13;13.40;;;22.70;9.20;;;;;;5060277;28;20045;-63
2023/09/19 10:04:52;;;;;;;26.77;17.50;;;22.70;1.00;;;;;;5064880;28;20061;-61
2023/09/19 10:07:32;;;;;;;27.02;16.63;;;22.70;1.00;;;;;;5062915;28;20495;-61
2023/09/19 10:10:09;;;;;;;25.30;11.18;;;22.80;1.50;;;;;;5063796;28;20037;-61
2023/09/19 10:12:38;;;;;;;23.58;12.45;;;22.80;1.00;;;;;;5062117;28;20046;-63
2023/09/19 10:15:07;;;;;;;22.10;14.43;;;22.80;1.00;;;;;;5064262;28;20036;-61
2023/09/19 10:17:36;;;;;;;27.67;16.05;;;22.90;1.00;;;;;;5063229;28;20040;-62
2023/09/19 10:20:09;;;;;;;24.48;17.90;;;22.90;9.80;;;;;;5059757;28;20090;-63
2023/09/19 10:22:36;;;;;;;24.65;14.48;;;22.80;61.00;;;;;;5062681;28;20047;-62
2023/09/19 10:25:06;;;;;;;24.25;14.25;;;22.60;19.40;;;;;;5067170;28;20117;-63
2023/09/19 10:27:37;;;;;;;26.25;15.80;;;22.70;23.90;;;;;;5067180;28;20033;-61
2023/09/19 10:30:07;;;;;;;22.23;17.10;;;22.60;35.30;;;;;;5065569;28;20035;-62
2023/09/19 10:32:35;;;;;;;24.15;14.98;;;22.70;99.90;;;;;;5069402;28;20423;-61
2023/09/19 10:35:02;;;;;;;29.27;17.95;;;22.70;99.90;;;;;;5067513;28;20036;-61
2023/09/19 10:37:29;;;;;;;24.50;17.40;;;23.10;99.90;;;;;;5069560;28;20114;-61
2023/09/19 10:39:56;;;;;;;25.63;18.40;;;22.70;99.90;;;;;;5060796;28;20138;-61
2023/09/19 10:42:27;;;;;;;31.23;22.52;;;22.50;99.90;;;;;;5061458;28;20036;-61
2023/09/19 10:44:54;;;;;;;30.52;24.88;;;22.50;99.90;;;;;;5061188;28;20517;-62
2023/09/19 10:47:24;;;;;;;32.42;27.30;;;22.40;1.00;;;;;;5061719;28;20055;-62
2023/09/19 10:49:49;;;;;;;31.85;26.70;;;22.40;99.90;;;;;;5056562;28;20067;-62
2023/09/19 10:52:21;;;;;;;34.47;28.85;;;22.40;1.00;;;;;;5061593;28;20506;-65
2023/09/19 10:54:52;;;;;;;29.98;25.02;;;22.50;99.90;;;;;;5065101;28;20064;-65
2023/09/19 10:57:27;;;;;;;25.23;22.58;;;22.50;99.90;;;;;;5063742;28;20119;-66
2023/09/19 11:00:28;;;;;;;34.20;27.10;;;22.60;99.90;;;;;;5064587;28;20040;-66
2023/09/19 11:03:09;;;;;;;34.97;27.17;;;22.40;1.00;;;;;;5053263;28;20117;-65
2023/09/19 11:05:40;;;;;;;32.65;26.63;;;22.40;1.00;;;;;;5063174;28;20044;-65
2023/09/19 11:08:07;;;;;;;29.48;24.98;;;22.10;69.50;;;;;;5065993;28;20044;-65
2023/09/19 11:10:47;;;;;;;32.90;27.50;;;22.00;99.90;;;;;;5057537;28;20132;-65
2023/09/19 11:13:31;;;;;;;33.10;27.13;;;21.90;99.90;;;;;;5062888;28;20430;-66
2023/09/19 11:16:00;;;;;;;36.17;28.98;;;21.90;1.00;;;;;;5063483;28;20582;-66
2023/09/19 11:18:41;;;;;;;28.13;24.90;;;22.00;1.00;;;;;;5055488;28;20617;-65
2023/09/19 11:21:33;;;;;;;34.85;27.15;;;21.60;99.90;;;;;;5055752;28;20056;-65
2023/09/19 11:24:22;;;;;;;33.45;26.75;;;21.50;99.90;;;;;;5060016;28;20052;-65
2023/09/19 11:26:48;;;;;;;33.75;25.30;;;21.60;99.90;;;;;;5061361;28;20098;-65
2023/09/19 11:29:30;;;;;;;33.15;26.38;;;21.60;99.90;;;;;;5059478;28;20048;-64
2023/09/19 11:31:59;;;;;;;36.55;29.85;;;21.60;1.00;;;;;;5061136;28;20049;-65
2023/09/19 11:34:36;;;;;;;40.95;30.52;;;21.60;1.00;;;;;;5055104;28;20124;-65
2023/09/19 11:37:14;;;;;;;34.00;28.95;;;21.30;99.90;;;;;;5061544;28;20067;-64
2023/09/19 11:39:59;;;;;;;40.63;31.20;;;21.20;99.90;;;;;;5059515;28;20120;-65
2023/09/19 11:42:50;;;;;;;34.40;30.05;;;21.20;99.90;;;;;;5060533;28;20055;-65
2023/09/19 11:45:49;;;;;;;35.83;30.85;;;21.00;99.90;;;;;;5057197;28;20075;-65
2023/09/19 11:48:25;;;;;;;44.33;35.08;;;20.90;99.90;;;;;;5057086;28;20041;-65
2023/09/19 11:50:51;;;;;;;;;;;20.90;99.90;;;;;;5059798;28;20053;-66
2023/09/19 11:53:17;;;;;;;39.97;33.97;;;21.00;99.90;;;;;;5068805;28;19952;-65
2023/09/19 11:55:43;;;;;;;35.75;31.58;;;20.90;99.90;;;;;;5060012;28;20076;-65
2023/09/19 11:58:09;;;;;;;39.35;33.70;;;21.00;99.90;;;;;;5057776;28;20131;-65
2023/09/19 12:00:38;;;;;;;38.30;34.40;;;21.20;99.90;;;;;;5060789;28;20140;-64
2023/09/19 12:03:11;;;;;;;39.30;33.92;;;21.20;99.90;;;;;;5058918;28;20040;-64
2023/09/19 12:05:38;;;;;;;38.95;33.78;;;21.20;99.90;;;;;;5065340;28;20094;-64
2023/09/19 12:08:07;;;;;;;37.03;32.60;;;21.50;99.90;;;;;;5064480;28;20053;-65
2023/09/19 12:10:33;;;;;;;34.42;30.50;;;21.60;99.90;;;;;;5064173;28;20056;-64
2023/09/19 12:12:59;;;;;;;31.65;28.27;;;21.60;99.90;;;;;;5058541;28;20390;-66
2023/09/19 12:15:34;;;;;;;34.05;29.90;;;21.30;99.90;;;;;;5056615;28;20128;-64
2023/09/19 12:18:00;;;;;;;31.13;28.10;;;21.50;99.90;;;;;;5059883;28;20045;-66
2023/09/19 12:20:41;;;;;;;36.63;28.15;;;21.70;99.90;;;;;;5056805;28;20045;-65
2023/09/19 12:23:14;;;;;;;37.13;27.75;;;21.60;99.90;;;;;;5052822;28;20041;-65
2023/09/19 12:25:47;;;;;;;30.08;27.08;;;21.50;99.90;;;;;;5060918;28;20563;-66
2023/09/19 12:28:14;;;;;;;29.27;25.02;;;21.80;99.90;;;;;;5067140;28;20044;-65
2023/09/19 12:30:41;;;;;;;29.50;26.48;;;21.70;99.90;;;;;;5055931;28;20052;-66
2023/09/19 12:33:18;;;;;;;35.20;27.38;;;21.70;99.90;;;;;;5061337;28;20036;-65
2023/09/19 12:35:44;;;;;;;32.83;28.15;;;21.70;99.90;;;;;;5052765;28;20071;-65
2023/09/19 12:38:12;;;;;;;34.17;30.48;;;21.60;99.90;;;;;;5063429;28;20041;-65
2023/09/19 12:40:42;;;;;;;37.22;32.72;;;21.50;99.90;;;;;;5057390;28;20052;-64
2023/09/19 12:43:09;;;;;;;37.40;33.40;;;21.20;99.90;;;;;;5057097;28;20418;-64
2023/09/19 12:45:37;;;;;;;38.00;33.72;;;21.00;99.90;;;;;;5058636;28;20048;-65
2023/09/19 12:48:29;;;;;;;36.03;32.35;;;21.10;99.90;;;;;;5054557;28;20071;-64
2023/09/19 12:51:07;;;;;;;40.42;35.13;;;21.00;99.90;;;;;;5058073;28;20447;-64